sensor_id;sensor_type;location;lat;lon;timestamp;pressure;altitude;pressure_sealevel;temperature;humidity
77517;BME280;68414;53.946;27.634;2023-08-17T00:00:44;99667.507812;;;23.670000;72.665039
77517;BME280;68414;53.946;27.634;2023-08-17T00:01:42;99670.750000;;;23.660000;72.497070
77517;BME280;68414;53.946;27.634;2023-08-17T00:02:43;99669.578125;;;23.629999;72.592773
77517;BME280;68414;53.946;27.634;2023-08-17T00:03:43;99666.765625;;;23.629999;72.860352
77517;BME280;68414;53.946;27.634;2023-08-17T00:04:44;99668.000000;;;23.620001;72.791992
77517;BME280;68414;53.946;27.634;2023-08-17T00:05:43;99670.437500;;;23.600000;72.933594
77517;BME280;68414;53.946;27.634;2023-08-17T00:06:42;99673.250000;;;23.600000;72.911133
77517;BME280;68414;53.946;27.634;2023-08-17T00:07:43;99673.343750;;;23.530001;72.988281
77517;BME280;68414;53.946;27.634;2023-08-17T00:08:43;99675.421875;;;23.459999;73.199219
77517;BME280;68414;53.946;27.634;2023-08-17T00:09:43;99678.617188;;;23.480000;73.081055
77517;BME280;68414;53.946;27.634;2023-08-17T00:10:42;99676.203125;;;23.500000;73.073242
77517;BME280;68414;53.946;27.634;2023-08-17T00:11:43;99674.171875;;;23.500000;73.250977
77517;BME280;68414;53.946;27.634;2023-08-17T00:12:43;99678.156250;;;23.530001;73.467773
77517;BME280;68414;53.946;27.634;2023-08-17T00:13:44;99664.890625;;;23.530001;73.311523
77517;BME280;68414;53.946;27.634;2023-08-17T00:14:44;99672.968750;;;23.510000;73.275391
77517;BME280;68414;53.946;27.634;2023-08-17T00:15:44;99667.335938;;;23.510000;73.275391
77517;BME280;68414;53.946;27.634;2023-08-17T00:16:42;99672.156250;;;23.510000;73.295898
77517;BME280;68414;53.946;27.634;2023-08-17T00:17:44;99672.968750;;;23.510000;73.208008
77517;BME280;68414;53.946;27.634;2023-08-17T00:18:42;99674.171875;;;23.500000;73.374023
77517;BME280;68414;53.946;27.634;2023-08-17T00:19:44;99674.968750;;;23.510000;73.285156
77517;BME280;68414;53.946;27.634;2023-08-17T00:20:44;99679.023438;;;23.500000;73.217773
77517;BME280;68414;53.946;27.634;2023-08-17T00:21:44;99677.039062;;;23.469999;73.267578
77517;BME280;68414;53.946;27.634;2023-08-17T00:22:44;99677.843750;;;23.469999;73.492188
77517;BME280;68414;53.946;27.634;2023-08-17T00:23:44;99677.843750;;;23.469999;73.681641
77517;BME280;68414;53.946;27.634;2023-08-17T00:24:43;99679.851562;;;23.469999;73.791016
77517;BME280;68414;53.946;27.634;2023-08-17T00:25:43;99677.921875;;;23.400000;73.681641
77517;BME280;68414;53.946;27.634;2023-08-17T00:26:44;99676.312500;;;23.389999;73.500977
77517;BME280;68414;53.946;27.634;2023-08-17T00:27:44;99673.929688;;;23.379999;73.610352
77517;BME280;68414;53.946;27.634;2023-08-17T00:28:42;99678.750000;;;23.370001;73.375000
77517;BME280;68414;53.946;27.634;2023-08-17T00:29:42;99675.585938;;;23.309999;73.432617
77517;BME280;68414;53.946;27.634;2023-08-17T00:30:42;99673.226562;;;23.260000;73.915039
77517;BME280;68414;53.946;27.634;2023-08-17T00:31:42;99670.789062;;;23.280001;73.818359
77517;BME280;68414;53.946;27.634;2023-08-17T00:32:42;99671.593750;;;23.290001;73.619141
77517;BME280;68414;53.946;27.634;2023-08-17T00:33:43;99670.093750;;;23.209999;73.783203
77517;BME280;68414;53.946;27.634;2023-08-17T00:34:45;99673.203125;;;23.299999;73.964844
77517;BME280;68414;53.946;27.634;2023-08-17T00:35:43;99672.398438;;;23.290001;74.109375
77517;BME280;68414;53.946;27.634;2023-08-17T00:36:43;99672.828125;;;23.280001;74.395508
77517;BME280;68414;53.946;27.634;2023-08-17T00:37:42;99677.648438;;;23.270000;74.306641
77517;BME280;68414;53.946;27.634;2023-08-17T00:38:43;99674.078125;;;23.230000;74.433594
77517;BME280;68414;53.946;27.634;2023-08-17T00:39:45;99674.078125;;;23.230000;74.333984
77517;BME280;68414;53.946;27.634;2023-08-17T00:40:42;99674.109375;;;23.200001;74.583984
77517;BME280;68414;53.946;27.634;2023-08-17T00:41:44;99678.953125;;;23.190001;74.583984
77517;BME280;68414;53.946;27.634;2023-08-17T00:42:44;99685.351562;;;23.200001;74.561523
77517;BME280;68414;53.946;27.634;2023-08-17T00:43:42;99678.953125;;;23.190001;74.494141
77517;BME280;68414;53.946;27.634;2023-08-17T00:44:42;99676.539062;;;23.180000;74.523438
77517;BME280;68414;53.946;27.634;2023-08-17T00:45:43;99678.953125;;;23.190001;74.572266
77517;BME280;68414;53.946;27.634;2023-08-17T00:46:42;99684.171875;;;23.170000;74.801758
77517;BME280;68414;53.946;27.634;2023-08-17T00:47:44;99679.726562;;;23.200001;74.460938
77517;BME280;68414;53.946;27.634;2023-08-17T00:48:42;99680.585938;;;23.170000;74.523438
77517;BME280;68414;53.946;27.634;2023-08-17T00:49:42;99678.171875;;;23.150000;74.698242
77517;BME280;68414;53.946;27.634;2023-08-17T00:50:46;99678.968750;;;23.160000;74.620117
77517;BME280;68414;53.946;27.634;2023-08-17T00:51:42;99677.796875;;;23.129999;74.849609
77517;BME280;68414;53.946;27.634;2023-08-17T00:52:43;99680.609375;;;23.129999;74.705078
77517;BME280;68414;53.946;27.634;2023-08-17T00:53:42;99683.046875;;;23.110001;74.946289
77517;BME280;68414;53.946;27.634;2023-08-17T00:54:45;99677.421875;;;23.110001;75.057617
77517;BME280;68414;53.946;27.634;2023-08-17T00:55:42;99676.281250;;;23.049999;75.259766
77517;BME280;68414;53.946;27.634;2023-08-17T00:56:45;99687.906250;;;23.070000;74.895508
77517;BME280;68414;53.946;27.634;2023-08-17T00:57:45;99681.101562;;;23.049999;74.948242
77517;BME280;68414;53.946;27.634;2023-08-17T00:58:42;99680.703125;;;23.059999;75.049805
77517;BME280;68414;53.946;27.634;2023-08-17T00:59:42;99676.664062;;;23.070000;74.651367
77517;BME280;68414;53.946;27.634;2023-08-17T01:00:43;99677.843750;;;23.100000;74.555664
77517;BME280;68414;53.946;27.634;2023-08-17T01:01:42;99676.234375;;;23.090000;74.676758
77517;BME280;68414;53.946;27.634;2023-08-17T01:02:46;99670.609375;;;23.090000;74.798828
77517;BME280;68414;53.946;27.634;2023-08-17T01:03:44;99669.406250;;;23.100000;74.566406
77517;BME280;68414;53.946;27.634;2023-08-17T01:04:42;99679.828125;;;23.129999;74.315430
77517;BME280;68414;53.946;27.634;2023-08-17T01:05:44;99670.593750;;;23.120001;74.804688
77517;BME280;68414;53.946;27.634;2023-08-17T01:06:44;99675.789062;;;23.139999;74.873047
77517;BME280;68414;53.946;27.634;2023-08-17T01:07:42;99675.789062;;;23.139999;74.884766
77517;BME280;68414;53.946;27.634;2023-08-17T01:08:45;99672.601562;;;23.120001;74.915039
77517;BME280;68414;53.946;27.634;2023-08-17T01:09:43;99673.796875;;;23.110001;74.991211
77517;BME280;68414;53.946;27.634;2023-08-17T01:14:44;99677.468750;;;23.080000;74.886719
77517;BME280;68414;53.946;27.634;2023-08-17T01:15:46;99678.671875;;;23.070000;74.784180
77517;BME280;68414;53.946;27.634;2023-08-17T01:16:46;99682.710938;;;23.059999;74.661133
77517;BME280;68414;53.946;27.634;2023-08-17T01:18:42;99681.484375;;;23.070000;74.717773
77517;BME280;68414;53.946;27.634;2023-08-17T01:19:42;99681.484375;;;23.070000;74.729492
77517;BME280;68414;53.946;27.634;2023-08-17T01:20:44;99681.484375;;;23.070000;74.806641
77517;BME280;68414;53.946;27.634;2023-08-17T01:21:44;99688.718750;;;23.080000;74.808594
77517;BME280;68414;53.946;27.634;2023-08-17T01:22:42;99683.109375;;;23.040001;74.835938
77517;BME280;68414;53.946;27.634;2023-08-17T01:23:44;99675.906250;;;23.030001;74.867188
77517;BME280;68414;53.946;27.634;2023-08-17T01:24:44;99688.359375;;;23.020000;74.899414
77517;BME280;68414;53.946;27.634;2023-08-17T01:25:42;99681.953125;;;23.020000;74.697266
77517;BME280;68414;53.946;27.634;2023-08-17T01:26:42;99683.156250;;;23.010000;74.730469
77517;BME280;68414;53.946;27.634;2023-08-17T01:28:43;99679.968750;;;22.990000;74.904297
77517;BME280;68414;53.946;27.634;2023-08-17T01:29:42;99682.070312;;;22.910000;75.069336
77517;BME280;68414;53.946;27.634;2023-08-17T01:33:44;99684.140625;;;22.840000;75.390625
77517;BME280;68414;53.946;27.634;2023-08-17T01:36:43;99686.570312;;;22.820000;75.410156
77517;BME280;68414;53.946;27.634;2023-08-17T01:37:42;99687.375000;;;22.820000;75.500977
77517;BME280;68414;53.946;27.634;2023-08-17T01:38:44;99685.750000;;;22.850000;75.481445
77517;BME280;68414;53.946;27.634;2023-08-17T01:39:43;99684.093750;;;22.870001;75.441406
77517;BME280;68414;53.946;27.634;2023-08-17T01:40:42;99689.320312;;;22.889999;75.367188
77517;BME280;68414;53.946;27.634;2023-08-17T01:41:42;99684.078125;;;22.910000;75.058594
77517;BME280;68414;53.946;27.634;2023-08-17T01:42:42;99684.898438;;;22.879999;75.164062
77517;BME280;68414;53.946;27.634;2023-08-17T01:43:45;99683.320312;;;22.870001;75.217773
77517;BME280;68414;53.946;27.634;2023-08-17T01:44:42;99683.375000;;;22.799999;75.574219
77517;BME280;68414;53.946;27.634;2023-08-17T01:45:44;99684.562500;;;22.820000;75.411133
77517;BME280;68414;53.946;27.634;2023-08-17T01:46:42;99688.562500;;;22.850000;75.214844
77517;BME280;68414;53.946;27.634;2023-08-17T01:47:42;99684.945312;;;22.840000;75.180664
77517;BME280;68414;53.946;27.634;2023-08-17T01:48:43;99681.328125;;;22.840000;75.346680
77517;BME280;68414;53.946;27.634;2023-08-17T01:49:42;99683.718750;;;22.850000;75.291992
77517;BME280;68414;53.946;27.634;2023-08-17T01:50:44;99688.578125;;;22.809999;75.419922
77517;BME280;68414;53.946;27.634;2023-08-17T01:51:42;99684.140625;;;22.840000;75.235352
77517;BME280;68414;53.946;27.634;2023-08-17T01:52:42;99688.953125;;;22.830000;75.289062
77517;BME280;68414;53.946;27.634;2023-08-17T01:53:42;99690.625000;;;22.770000;75.691406
77517;BME280;68414;53.946;27.634;2023-08-17T01:54:42;99681.375000;;;22.799999;75.451172
77517;BME280;68414;53.946;27.634;2023-08-17T01:55:42;99686.187500;;;22.799999;75.240234
77517;BME280;68414;53.946;27.634;2023-08-17T01:56:42;99682.578125;;;22.790001;75.305664
77517;BME280;68414;53.946;27.634;2023-08-17T01:57:45;99692.617188;;;22.799999;75.329102
77517;BME280;68414;53.946;27.634;2023-08-17T01:58:43;99686.187500;;;22.799999;75.407227
77517;BME280;68414;53.946;27.634;2023-08-17T01:59:45;99692.632812;;;22.770000;75.445312
77517;BME280;68414;53.946;27.634;2023-08-17T02:00:42;99689.828125;;;22.770000;75.433594
77517;BME280;68414;53.946;27.634;2023-08-17T02:01:42;99695.437500;;;22.770000;75.489258
77517;BME280;68414;53.946;27.634;2023-08-17T02:02:43;99685.000000;;;22.770000;75.280273
77517;BME280;68414;53.946;27.634;2023-08-17T02:03:42;99682.195312;;;22.770000;75.224609
77517;BME280;68414;53.946;27.634;2023-08-17T02:04:42;99686.617188;;;22.780001;75.204102
77517;BME280;68414;53.946;27.634;2023-08-17T02:06:42;99688.242188;;;22.760000;75.131836
77517;BME280;68414;53.946;27.634;2023-08-17T02:07:44;99693.859375;;;22.760000;75.087891
77517;BME280;68414;53.946;27.634;2023-08-17T02:08:45;99692.632812;;;22.770000;75.044922
77517;BME280;68414;53.946;27.634;2023-08-17T02:09:42;99688.250000;;;22.719999;75.450195
77517;BME280;68414;53.946;27.634;2023-08-17T02:10:44;99684.671875;;;22.719999;75.371094
77517;BME280;68414;53.946;27.634;2023-08-17T02:11:42;99681.859375;;;22.719999;75.336914
77517;BME280;68414;53.946;27.634;2023-08-17T02:12:42;99683.437500;;;22.730000;75.383789
77517;BME280;68414;53.946;27.634;2023-08-17T02:13:42;99684.671875;;;22.719999;75.493164
77517;BME280;68414;53.946;27.634;2023-08-17T02:14:42;99686.671875;;;22.709999;75.424805
77517;BME280;68414;53.946;27.634;2023-08-17T02:15:42;99687.484375;;;22.719999;75.604492
77517;BME280;68414;53.946;27.634;2023-08-17T02:16:44;99693.101562;;;22.719999;75.459961
77517;BME280;68414;53.946;27.634;2023-08-17T02:17:42;99688.250000;;;22.719999;75.516602
77517;BME280;68414;53.946;27.634;2023-08-17T02:18:42;99688.250000;;;22.719999;75.539062
77517;BME280;68414;53.946;27.634;2023-08-17T02:19:42;99687.484375;;;22.719999;75.559570
77517;BME280;68414;53.946;27.634;2023-08-17T02:20:45;99687.484375;;;22.719999;75.448242
77517;BME280;68414;53.946;27.634;2023-08-17T02:21:44;99688.687500;;;22.709999;75.602539
77517;BME280;68414;53.946;27.634;2023-08-17T02:22:42;99689.109375;;;22.690001;75.465820
77517;BME280;68414;53.946;27.634;2023-08-17T02:23:42;99687.101562;;;22.700001;75.523438
77517;BME280;68414;53.946;27.634;2023-08-17T02:24:42;99693.921875;;;22.690001;75.421875
77517;BME280;68414;53.946;27.634;2023-08-17T02:25:42;99689.500000;;;22.680000;75.397461
77517;BME280;68414;53.946;27.634;2023-08-17T02:26:42;99689.906250;;;22.700001;75.290039
77517;BME280;68414;53.946;27.634;2023-08-17T02:27:42;99691.109375;;;22.690001;75.387695
77517;BME280;68414;53.946;27.634;2023-08-17T02:28:42;99682.679688;;;22.690001;75.410156
77517;BME280;68414;53.946;27.634;2023-08-17T02:29:42;99689.109375;;;22.690001;75.387695
77517;BME280;68414;53.946;27.634;2023-08-17T02:30:42;99690.734375;;;22.670000;75.394531
77517;BME280;68414;53.946;27.634;2023-08-17T02:31:42;99690.734375;;;22.670000;75.316406
77517;BME280;68414;53.946;27.634;2023-08-17T02:32:44;99690.734375;;;22.670000;75.272461
77517;BME280;68414;53.946;27.634;2023-08-17T02:33:42;99690.734375;;;22.670000;75.605469
77517;BME280;68414;53.946;27.634;2023-08-17T02:34:42;99684.734375;;;22.650000;75.580078
77517;BME280;68414;53.946;27.634;2023-08-17T02:35:48;99690.343750;;;22.650000;75.480469
77517;BME280;68414;53.946;27.634;2023-08-17T02:36:44;99691.546875;;;22.629999;75.490234
77517;BME280;68414;53.946;27.634;2023-08-17T02:37:43;99686.351562;;;22.620001;75.553711
77517;BME280;68414;53.946;27.634;2023-08-17T02:38:44;99689.968750;;;22.629999;75.710938
77517;BME280;68414;53.946;27.634;2023-08-17T02:39:42;99694.398438;;;22.600000;75.572266
77517;BME280;68414;53.946;27.634;2023-08-17T02:40:42;99684.375000;;;22.549999;75.510742
77517;BME280;68414;53.946;27.634;2023-08-17T02:41:42;99687.234375;;;22.480000;75.898438
77517;BME280;68414;53.946;27.634;2023-08-17T02:42:42;99682.421875;;;22.490000;75.666992
77517;BME280;68414;53.946;27.634;2023-08-17T02:43:42;99685.609375;;;22.510000;75.692383
77517;BME280;68414;53.946;27.634;2023-08-17T02:44:42;99681.609375;;;22.520000;75.626953
77517;BME280;68414;53.946;27.634;2023-08-17T02:45:42;99686.375000;;;22.549999;75.520508
77517;BME280;68414;53.946;27.634;2023-08-17T02:46:42;99686.757812;;;22.570000;75.512695
77517;BME280;68414;53.946;27.634;2023-08-17T02:47:43;99683.953125;;;22.570000;75.368164
77517;BME280;68414;53.946;27.634;2023-08-17T02:48:42;99689.171875;;;22.580000;75.170898
77517;BME280;68414;53.946;27.634;2023-08-17T02:49:42;99687.976562;;;22.590000;75.272461
77517;BME280;68414;53.946;27.634;2023-08-17T02:50:42;99683.554688;;;22.580000;75.326172
77517;BME280;68414;53.946;27.634;2023-08-17T02:51:42;99691.179688;;;22.580000;75.291992
77517;BME280;68414;53.946;27.634;2023-08-17T02:52:44;99687.171875;;;22.590000;75.437500
77517;BME280;68414;53.946;27.634;2023-08-17T02:53:42;99688.796875;;;22.559999;75.389648
77517;BME280;68414;53.946;27.634;2023-08-17T02:54:44;99686.757812;;;22.570000;75.333984
77517;BME280;68414;53.946;27.634;2023-08-17T02:55:42;99679.562500;;;22.559999;75.355469
77517;BME280;68414;53.946;27.634;2023-08-17T02:56:42;99682.750000;;;22.580000;75.414062
77517;BME280;68414;53.946;27.634;2023-08-17T02:57:42;99686.757812;;;22.570000;75.368164
77517;BME280;68414;53.946;27.634;2023-08-17T02:58:42;99683.562500;;;22.549999;75.175781
77517;BME280;68414;53.946;27.634;2023-08-17T02:59:42;99681.179688;;;22.530001;75.330078
77517;BME280;68414;53.946;27.634;2023-08-17T03:00:42;99680.757812;;;22.549999;75.219727
77517;BME280;68414;53.946;27.634;2023-08-17T03:01:44;99680.757812;;;22.549999;75.097656
77517;BME280;68414;53.946;27.634;2023-08-17T03:02:45;99688.000000;;;22.520000;74.893555
77517;BME280;68414;53.946;27.634;2023-08-17T03:03:44;99684.812500;;;22.500000;75.223633
77517;BME280;68414;53.946;27.634;2023-08-17T03:04:42;99689.226562;;;22.510000;75.170898
77517;BME280;68414;53.946;27.634;2023-08-17T03:05:42;99684.812500;;;22.500000;75.190430
77517;BME280;68414;53.946;27.634;2023-08-17T03:06:42;99690.031250;;;22.520000;75.226562
77517;BME280;68414;53.946;27.634;2023-08-17T03:07:42;99690.812500;;;22.520000;75.193359
77517;BME280;68414;53.946;27.634;2023-08-17T03:08:42;99686.796875;;;22.530001;75.340820
77517;BME280;68414;53.946;27.634;2023-08-17T03:09:42;99689.609375;;;22.530001;75.352539
77517;BME280;68414;53.946;27.634;2023-08-17T03:10:42;99680.375000;;;22.530001;75.583984
77517;BME280;68414;53.946;27.634;2023-08-17T03:11:42;99688.804688;;;22.530001;75.572266
77517;BME280;68414;53.946;27.634;2023-08-17T03:12:42;99678.375000;;;22.530001;75.507812
77517;BME280;68414;53.946;27.634;2023-08-17T03:13:42;99686.796875;;;22.530001;75.407227
77517;BME280;68414;53.946;27.634;2023-08-17T03:14:42;99688.375000;;;22.540001;75.563477
77517;BME280;68414;53.946;27.634;2023-08-17T03:15:42;99682.367188;;;22.559999;75.632812
77517;BME280;68414;53.946;27.634;2023-08-17T03:16:42;99680.359375;;;22.559999;75.579102
77517;BME280;68414;53.946;27.634;2023-08-17T03:17:42;99679.562500;;;22.559999;75.455078
77517;BME280;68414;53.946;27.634;2023-08-17T03:18:42;99683.953125;;;22.570000;75.423828
77517;BME280;68414;53.946;27.634;2023-08-17T03:19:44;99682.750000;;;22.580000;75.447266
77517;BME280;68414;53.946;27.634;2023-08-17T03:20:44;99689.171875;;;22.580000;75.304688
77517;BME280;68414;53.946;27.634;2023-08-17T03:21:44;99682.765625;;;22.540001;75.285156
77517;BME280;68414;53.946;27.634;2023-08-17T03:22:42;99685.570312;;;22.540001;75.418945
77517;BME280;68414;53.946;27.634;2023-08-17T03:23:42;99683.609375;;;22.510000;75.548828
77517;BME280;68414;53.946;27.634;2023-08-17T03:24:42;99687.617188;;;22.500000;75.568359
77517;BME280;68414;53.946;27.634;2023-08-17T03:25:42;99690.812500;;;22.520000;75.348633
77517;BME280;68414;53.946;27.634;2023-08-17T03:26:42;99690.414062;;;22.540001;75.285156
77517;BME280;68414;53.946;27.634;2023-08-17T03:27:42;99692.421875;;;22.530001;75.352539
77517;BME280;68414;53.946;27.634;2023-08-17T03:28:42;99689.984375;;;22.549999;75.377930
77517;BME280;68414;53.946;27.634;2023-08-17T03:29:42;99695.609375;;;22.549999;75.266602
77517;BME280;68414;53.946;27.634;2023-08-17T03:30:42;99692.460938;;;22.500000;75.588867
77517;BME280;68414;53.946;27.634;2023-08-17T03:31:42;99687.617188;;;22.500000;75.401367
77517;BME280;68414;53.946;27.634;2023-08-17T03:32:42;99692.421875;;;22.530001;75.374023
77517;BME280;68414;53.946;27.634;2023-08-17T03:33:44;99698.453125;;;22.520000;75.170898
77517;BME280;68414;53.946;27.634;2023-08-17T03:34:42;99694.890625;;;22.480000;75.507812
77517;BME280;68414;53.946;27.634;2023-08-17T03:35:44;99700.078125;;;22.490000;75.700195
77517;BME280;68414;53.946;27.634;2023-08-17T03:36:42;99700.078125;;;22.490000;75.233398
77517;BME280;68414;53.946;27.634;2023-08-17T03:37:42;99697.687500;;;22.480000;75.429688
77517;BME280;68414;53.946;27.634;2023-08-17T03:38:42;99704.125000;;;22.450001;75.603516
77517;BME280;68414;53.946;27.634;2023-08-17T03:39:42;99702.078125;;;22.490000;75.622070
77517;BME280;68414;53.946;27.634;2023-08-17T03:40:42;99700.843750;;;22.530001;75.274414
77517;BME280;68414;53.946;27.634;2023-08-17T03:41:44;99698.796875;;;22.570000;75.335938
77517;BME280;68414;53.946;27.634;2023-08-17T03:42:43;99704.406250;;;22.610001;75.109375
77517;BME280;68414;53.946;27.634;2023-08-17T03:43:43;99701.585938;;;22.650000;75.247070
77517;BME280;68414;53.946;27.634;2023-08-17T03:44:42;99703.546875;;;22.680000;75.120117
77517;BME280;68414;53.946;27.634;2023-08-17T03:45:42;99695.156250;;;22.639999;75.113281
77517;BME280;68414;53.946;27.634;2023-08-17T03:46:42;99708.390625;;;22.670000;74.806641
77517;BME280;68414;53.946;27.634;2023-08-17T03:47:44;99708.773438;;;22.690001;74.621094
77517;BME280;68414;53.946;27.634;2023-08-17T03:48:42;99698.343750;;;22.700001;74.544922
77517;BME280;68414;53.946;27.634;2023-08-17T03:49:44;99695.906250;;;22.719999;74.547852
77517;BME280;68414;53.946;27.634;2023-08-17T03:50:42;99707.531250;;;22.740000;74.428711
77517;BME280;68414;53.946;27.634;2023-08-17T03:51:42;99700.257812;;;22.760000;74.500000
77517;BME280;68414;53.946;27.634;2023-08-17T03:52:42;99701.867188;;;22.770000;74.490234
77517;BME280;68414;53.946;27.634;2023-08-17T03:53:42;99697.429688;;;22.799999;74.483398
77517;BME280;68414;53.946;27.634;2023-08-17T03:54:42;99705.062500;;;22.790001;74.482422
77517;BME280;68414;53.946;27.634;2023-08-17T03:55:45;99698.617188;;;22.820000;74.444336
77517;BME280;68414;53.946;27.634;2023-08-17T03:56:42;99698.187500;;;22.840000;74.445312
77517;BME280;68414;53.946;27.634;2023-08-17T03:57:42;99690.562500;;;22.840000;74.502930
77517;BME280;68414;53.946;27.634;2023-08-17T03:58:42;99699.796875;;;22.850000;74.558594
77517;BME280;68414;53.946;27.634;2023-08-17T03:59:42;99694.953125;;;22.850000;74.414062
77517;BME280;68414;53.946;27.634;2023-08-17T04:00:47;99701.429688;;;22.820000;74.299805
77517;BME280;68414;53.946;27.634;2023-08-17T04:01:42;99696.187500;;;22.840000;74.402344
77517;BME280;68414;53.946;27.634;2023-08-17T04:02:42;99690.140625;;;22.860001;74.426758
77517;BME280;68414;53.946;27.634;2023-08-17T04:03:42;99694.937500;;;22.889999;74.432617
77517;BME280;68414;53.946;27.634;2023-08-17T04:04:42;99690.898438;;;22.900000;74.455078
77517;BME280;68414;53.946;27.634;2023-08-17T04:05:42;99696.078125;;;22.950001;74.218750
77517;BME280;68414;53.946;27.634;2023-08-17T04:06:45;99691.218750;;;22.990000;74.380859
77517;BME280;68414;53.946;27.634;2023-08-17T04:07:46;99696.390625;;;23.040001;73.810547
77517;BME280;68414;53.946;27.634;2023-08-17T04:08:42;99693.484375;;;23.110001;73.366211
77517;BME280;68414;53.946;27.634;2023-08-17T04:09:43;99693.890625;;;23.129999;73.424805
77517;BME280;68414;53.946;27.634;2023-08-17T04:10:43;99693.789062;;;23.200001;73.414062
77517;BME280;68414;53.946;27.634;2023-08-17T04:11:42;99696.953125;;;23.250000;73.166992
77517;BME280;68414;53.946;27.634;2023-08-17T04:12:42;99692.890625;;;23.299999;73.541016
77517;BME280;68414;53.946;27.634;2023-08-17T04:13:42;99694.859375;;;23.370001;73.039062
77517;BME280;68414;53.946;27.634;2023-08-17T04:14:42;99689.226562;;;23.370001;72.827148
77517;BME280;68414;53.946;27.634;2023-08-17T04:15:42;99694.859375;;;23.370001;73.083984
77517;BME280;68414;53.946;27.634;2023-08-17T04:16:42;99696.484375;;;23.340000;73.069336
77517;BME280;68414;53.946;27.634;2023-08-17T04:17:42;99694.515625;;;23.270000;71.766602
77517;BME280;68414;53.946;27.634;2023-08-17T04:18:42;99696.859375;;;23.320000;72.899414
77517;BME280;68414;53.946;27.634;2023-08-17T04:19:42;99692.414062;;;23.389999;72.753906
77517;BME280;68414;53.946;27.634;2023-08-17T04:20:42;99697.937500;;;23.459999;72.285156
77517;BME280;68414;53.946;27.634;2023-08-17T04:21:42;99698.281250;;;23.510000;71.725586
77517;BME280;68414;53.946;27.634;2023-08-17T04:22:42;99700.671875;;;23.530001;71.494141
77517;BME280;68414;53.946;27.634;2023-08-17T04:23:42;99695.789062;;;23.570000;71.377930
77517;BME280;68414;53.946;27.634;2023-08-17T04:24:44;99697.828125;;;23.559999;71.199219
77517;BME280;68414;53.946;27.634;2023-08-17T04:25:44;99700.156250;;;23.610001;71.150391
77517;BME280;68414;53.946;27.634;2023-08-17T04:26:43;99696.515625;;;23.639999;71.166016
77517;BME280;68414;53.946;27.634;2023-08-17T04:27:42;99693.703125;;;23.639999;71.333984
77517;BME280;68414;53.946;27.634;2023-08-17T04:28:42;99691.312500;;;23.629999;71.265625
77517;BME280;68414;53.946;27.634;2023-08-17T04:29:45;99693.265625;;;23.660000;71.191406
77517;BME280;68414;53.946;27.634;2023-08-17T04:30:42;99688.812500;;;23.680000;70.850586
77517;BME280;68414;53.946;27.634;2023-08-17T04:31:42;99688.437500;;;23.660000;71.014648
77517;BME280;68414;53.946;27.634;2023-08-17T04:32:42;99683.187500;;;23.680000;70.738281
77517;BME280;68414;53.946;27.634;2023-08-17T04:33:42;99690.828125;;;23.680000;69.900391
77517;BME280;68414;53.946;27.634;2023-08-17T04:34:44;99683.187500;;;23.680000;69.644531
77517;BME280;68414;53.946;27.634;2023-08-17T04:35:42;99688.750000;;;23.719999;70.463867
77517;BME280;68414;53.946;27.634;2023-08-17T04:36:42;99682.726562;;;23.730000;69.596680
77517;BME280;68414;53.946;27.634;2023-08-17T04:37:42;99686.312500;;;23.740000;69.930664
77517;BME280;68414;53.946;27.634;2023-08-17T04:38:42;99685.851562;;;23.790001;69.995117
77517;BME280;68414;53.946;27.634;2023-08-17T04:39:42;99686.656250;;;23.790001;68.946289
77517;BME280;68414;53.946;27.634;2023-08-17T04:40:42;99680.164062;;;23.820000;68.907227
77517;BME280;68414;53.946;27.634;2023-08-17T04:41:42;99685.796875;;;23.820000;69.342773
77517;BME280;68414;53.946;27.634;2023-08-17T04:42:42;99680.562500;;;23.840000;69.668945